Flight Track Log - Related Links

Times and Time Zones

All times are in EDT time to prevent confusion due to time zone crossing. See the EGF3624 flight status page for this flight to view local times or setup timezone preferences in your user account.

Time Position Orientation Groundspeed Altitude Reporting Facility
EDT Latitude Longitude Course Direction KTS MPH feet Rate Location/Type
Thu 10:29:07 AM 42.8586 -85.4000 148° Southeast 229 264 6,100  Level Chicago Center
Thu 10:30:00 AM 42.7252 -85.9162 248° West  Level FlightAware Approximate
Thu 10:30:09 AM 42.8331 -85.4903 249° West 262 302 7,700  Level Chicago Center
Thu 10:31:00 AM 42.6936 -86.0194 246° West  Level FlightAware Approximate
Thu 10:31:11 AM 42.8075 -85.5944 252° West 283 326 9,600  Level Chicago Center
Thu 10:32:00 AM 42.6668 -86.1247 253° West  Level FlightAware Approximate
Thu 10:32:13 AM 42.7775 -85.7094 250° West 312 359 10,800  Level Chicago Center
Thu 10:33:00 AM 42.6450 -86.2316 246° West  Level FlightAware Approximate
Thu 10:33:15 AM 42.7444 -85.8339 250° West 341 392 11,900  Level Chicago Center
Thu 10:34:17 AM 42.7094 -85.9642 250° West 359 413 12,900 1,065 Climbing Chicago Center
Thu 10:35:19 AM 42.6711 -86.1272 252° West 373 429 14,100 1,065 Climbing Chicago Center
Thu 10:36:21 AM 42.6469 -86.2667 257° West 377 434 15,100 919 Climbing Chicago Center
Thu 10:37:23 AM 42.6219 -86.4072 256° West 380 437 16,000 435 Climbing Chicago Center
Thu 10:38:25 AM 42.5944 -86.5506 255° West 389 448 16,000 48 Level Chicago Center
Thu 10:39:27 AM 42.5667 -86.6989 256° West 402 463 16,100 -484 Climbing Chicago Center
Thu 10:40:29 AM 42.5303 -86.8450 251° West 409 471 15,000 -1,728 Descending Chicago Center
Thu 10:41:32 AM 42.4928 -86.9819 250° West 391 450 12,500 -2,256 Descending Chicago Center
Thu 10:42:34 AM 42.4492 -87.1378 249° West 371 427 10,300 -1,645 Descending Chicago Center
Thu 10:43:36 AM 42.4211 -87.2433 250° West 306 352 9,100 -677 Descending Chicago Center
Thu 10:44:38 AM 42.3875 -87.3439 246° West 294 338 8,900 -823 Descending Chicago Center
Thu 10:45:40 AM 42.3511 -87.4586 247° West 298 343 7,400 -919 Descending Chicago Center
Thu 10:46:42 AM 42.3139 -87.5561 243° Southwest 295 339 7,000 -242 Descending Chicago Center
Thu 10:47:44 AM 42.2483 -87.6172 215° Southwest 287 330 6,900 -677 Descending Chicago Center
Thu 10:48:46 AM 42.1964 -87.6778 221° Southwest 256 295 5,600 -1,161 Descending Chicago Center
Thu 10:49:48 AM 42.1436 -87.7356 219° Southwest 247 284 4,500 -1,286 Descending Chicago Center
Thu 10:50:24 AM 42.1000 -87.7833 219° Southwest 233 268 3,500 -1,250 Descending Chicago TRACON
Thu 10:51:24 AM 42.0667 -87.8333 228° Southwest 190 219 2,500 -1,000 Descending Chicago TRACON
Thu 10:52:24 AM 42.0333 -87.8667 217° Southwest 148 170 1,500 -1,000 Descending Chicago TRACON

Login

Don't have an account? Register now (free) for customized features, flight alerts, and more!